HLLMDTMB

Guest
Details From HLLM - MITIGA
To DTMB - Monastir Habib Bourguiba Intl
Flight Number -
Tags generated
Created
Modified
Stats Distance 219 nm / 406 km
Max Altitude 26,100 ft / 7,955 m
Waypoints 4
Social Downloads 0
Likes 0
Share VATSIM

Download

Looking for another format? Having issues loading an existing format? Contact us
Advertisement - Login to hide

Notes

Basic altitude profile: - Ascent Rate: 2500ft/min - Ascent Speed: 250kts - Cruise Altitude: 31000ft - Cruise Speed: 420kts - Descent Rate: 1500ft/min - Descent Speed: 250kts Options: - Use NATs: no - Use PACOTS: no - Use low airways: no - Use high airways: yes

Route

HLLM ABRAM BIRSA DTMB

ID Type Via Altitude Latitude Longitude Leg Dist Tot Dist Heading (true) Name
O HLLM APT - 0 ft / 0 m 32.89508˚ 13.28242˚ - 0 nm - MITIGA
ABRAM FIX - 26,100 ft / 7,955 m 34.33333˚ 12.63778˚ 92 nm 92 nm 340° / 339° -
BIRSA FIX - 10,900 ft / 3,322 m 35.05333˚ 11.50000˚ 70 nm 163 nm 308° / 307° -
O DTMB APT - 0 ft / 0 m 35.75784˚ 10.75403˚ 55 nm 218 nm 319° / 319° Monastir Habib Bourguiba Intl

Altitude Profile

Advertisement - Login to hide

Weather


0- 5 10 15 20 25 30 35+ Temperature / ° C

Clouds and Precipitation
Forecast for 2017-12-19 00:00 UTC. Updated an hour ago

Ground ~20,000 ft ~40,000 ft Winds

HLLM

Details ICAO HLLM (MJI)
Name MITIGA
Region Libya
Timezone Africa/Tripoli (UTC+2.0)
Stats Elevation 36 ft / 11 m (AMSL)
Location 32.895083° 13.282417°
Runways 2
Magnetic Variation 2.647° E

METAR

HLLM 182150Z 23003KT 6000 BKN025 12/09 Q1024

Decode

TAF

TAF HLLM 181100Z 1812/1912 33012KT 8000 SCT025 BKN070 TEMPO 1812/1912 5000 RA BECMG 1818/1820 24008KT

Decode

Departure Runways

ID Width Length Bearing (true) Bearing (mag) Surface Threshold Offset Overrun Length
03 148 ft / 45 m 5,966 ft / 1,819 m 29.95° 27.30° Asphalt 0 ft / 0 m 0 ft / 0 m
11 148 ft / 45 m 11,038 ft / 3,365 m 105.44° 102.79° Asphalt 0 ft / 0 m 900 ft / 274 m
21 148 ft / 45 m 5,966 ft / 1,819 m 209.95° 207.30° Asphalt 0 ft / 0 m 0 ft / 0 m
29 148 ft / 45 m 11,038 ft / 3,365 m 285.46° 282.81° Asphalt 0 ft / 0 m 1,000 ft / 305 m

DTMB

Details ICAO DTMB (MIR)
Name Monastir Habib Bourguiba Intl
Region Tunisia
Timezone Africa/Tunis (UTC+1.0)
Stats Elevation 9 ft / 3 m (AMSL)
Location 35.757843° 10.754025°
Runways 1
Magnetic Variation 2.434° E

METAR

DTMB 182230Z 20006KT 9999 FEW033 08/05 Q1024

Decode

TAF

TAF DTMB 181109Z 1812/1912 28013KT 9999 SCT023

Decode

Destination Runways

ID Width Length Bearing (true) Bearing (mag) Surface Threshold Offset Overrun Length
07 148 ft / 45 m 9,627 ft / 2,934 m 73.54° 71.11° Asphalt 0 ft / 0 m 164 ft / 50 m
25 148 ft / 45 m 9,627 ft / 2,934 m 253.56° 251.13° Asphalt 0 ft / 0 m 164 ft / 50 m

Approach Navaids

Runway Type Ident Frequency Range Bearing (true) Bearing (mag) Slope Elevation
07 Localiser MIS 109.90 MHz 18 nm / 33 km 73.57° 71.13° - 9 ft / 3 m (AMSL)
07 Glidescope MIS 109.90 MHz 10 nm / 19 km 73.55° 71.12° 3.00° 9 ft / 3 m (AMSL)

Popular Alternatives